Time;durP1;ratioP1;P1;durP2;ratioP2;P2;SDS_P1;SDS_P2;PMS_P1;PMS_P2;Temp;Humidity;BMP_temperature;BMP_pressure;BME280_temperature;BME280_humidity;BME280_pressure;Samples;Min_cycle;Max_cycle;Signal;HPM_P1;HPM_P2
2022/08/13 00:02:10;;;;;;;4.25;1.50;;;;;;;;;;5079254;28;20024;-84
2022/08/13 00:04:37;;;;;;;2.30;1.70;;;;;;;;;;5060423;28;20028;-84
2022/08/13 00:07:08;;;;;;;2.13;1.60;;;;;;;;;;5079413;28;20060;-84
2022/08/13 00:09:40;;;;;;;2.53;1.50;;;;;;;;;;5077482;28;20032;-84
2022/08/13 00:15:20;;;;;;;3.20;1.60;;;;;;;;;;5078421;28;20507;-84
2022/08/13 00:17:49;;;;;;;4.18;1.60;;;;;;;;;;5061267;28;20032;-84
2022/08/13 00:20:19;;;;;;;2.28;1.42;;;;;;;;;;5060781;28;20090;-84
2022/08/13 00:22:48;;;;;;;4.43;1.50;;;;;;;;;;5060775;28;20040;-84
2022/08/13 00:25:16;;;;;;;5.60;1.40;;;;;;;;;;5076400;28;20446;-84
2022/08/13 00:27:47;;;;;;;1.65;1.40;;;;;;;;;;5078369;28;20209;-84
2022/08/13 00:30:17;;;;;;;4.25;1.50;;;;;;;;;;5076996;28;20101;-84
2022/08/13 00:32:45;;;;;;;1.80;1.50;;;;;;;;;;5077900;28;20418;-84
2022/08/13 00:35:12;;;;;;;2.03;1.40;;;;;;;;;;5059464;28;20036;-84
2022/08/13 00:37:41;;;;;;;5.50;1.42;;;;;;;;;;5078261;28;20547;-84
2022/08/13 00:40:09;;;;;;;3.65;1.60;;;;;;;;;;5077390;28;20047;-84
2022/08/13 00:42:37;;;;;;;4.65;2.40;;;;;;;;;;5077873;28;20040;-83
2022/08/13 00:45:05;;;;;;;5.18;1.50;;;;;;;;;;5076860;28;20047;-83
2022/08/13 00:50:15;;;;;;;1.80;1.45;;;;;;;;;;5077732;28;20028;-84
2022/08/13 00:52:41;;;;;;;2.22;1.60;;;;;;;;;;5077651;28;20036;-84
2022/08/13 00:55:15;;;;;;;2.53;1.50;;;;;;;;;;5077241;28;20044;-84
2022/08/13 00:57:41;;;;;;;2.58;1.50;;;;;;;;;;5078163;28;20052;-84
2022/08/13 01:00:12;;;;;;;2.92;1.80;;;;;;;;;;5077991;28;20530;-84
2022/08/13 01:02:51;;;;;;;2.38;1.50;;;;;;;;;;5078335;28;20064;-84
2022/08/13 01:05:19;;;;;;;1.98;1.40;;;;;;;;;;5059466;28;20442;-84
2022/08/13 01:07:45;;;;;;;2.92;1.60;;;;;;;;;;5042771;28;20086;-84
2022/08/13 01:10:12;;;;;;;2.15;1.50;;;;;;;;;;5075944;28;20044;-83
2022/08/13 01:12:39;;;;;;;2.15;1.50;;;;;;;;;;5076185;28;20029;-83
2022/08/13 01:15:13;;;;;;;3.22;1.52;;;;;;;;;;5077171;28;20033;-83
2022/08/13 01:17:46;;;;;;;2.20;1.50;;;;;;;;;;5077552;28;20032;-83
2022/08/13 01:20:21;;;;;;;2.35;1.60;;;;;;;;;;5077231;28;20037;-83
2022/08/13 01:22:52;;;;;;;3.28;1.52;;;;;;;;;;5077533;28;20033;-83
2022/08/13 01:25:24;;;;;;;2.55;1.60;;;;;;;;;;5058567;28;20063;-83
2022/08/13 01:27:49;;;;;;;2.65;1.50;;;;;;;;;;5077808;28;20036;-83
2022/08/13 01:30:17;;;;;;;2.08;1.50;;;;;;;;;;5077269;28;20032;-84
2022/08/13 01:32:44;;;;;;;2.90;1.63;;;;;;;;;;5077703;28;20040;-83
2022/08/13 01:35:10;;;;;;;3.60;1.77;;;;;;;;;;5077171;28;20028;-83
2022/08/13 01:37:37;;;;;;;1.92;1.30;;;;;;;;;;5042689;28;20024;-83
2022/08/13 01:40:05;;;;;;;2.78;1.73;;;;;;;;;;5077427;28;20098;-83
2022/08/13 01:42:38;;;;;;;1.75;1.60;;;;;;;;;;5059054;28;20035;-83
2022/08/13 01:45:04;;;;;;;2.10;1.50;;;;;;;;;;5058071;28;20047;-83
2022/08/13 01:50:29;;;;;;;2.80;1.58;;;;;;;;;;5058756;28;20035;-83
2022/08/13 01:53:16;;;;;;;3.47;1.60;;;;;;;;;;5076834;28;20056;-83
2022/08/13 01:55:41;;;;;;;1.88;1.60;;;;;;;;;;5075466;28;20040;-83
2022/08/13 01:58:14;;;;;;;2.08;1.60;;;;;;;;;;5076670;28;20024;-83
2022/08/13 02:00:44;;;;;;;4.28;1.70;;;;;;;;;;5058513;28;20115;-83
2022/08/13 02:03:14;;;;;;;1.70;1.40;;;;;;;;;;5077279;28;20045;-83
2022/08/13 02:05:40;;;;;;;2.47;1.40;;;;;;;;;;5057991;28;20032;-82
2022/08/13 02:08:07;;;;;;;1.95;1.58;;;;;;;;;;5076431;28;20032;-85
2022/08/13 02:10:36;;;;;;;1.70;1.40;;;;;;;;;;5056536;28;20032;-84
2022/08/13 02:13:04;;;;;;;1.95;1.50;;;;;;;;;;5077059;28;20036;-85
2022/08/13 02:15:30;;;;;;;2.55;1.50;;;;;;;;;;5075677;28;20115;-83
2022/08/13 02:17:56;;;;;;;2.03;1.60;;;;;;;;;;5058199;28;20052;-84
2022/08/13 02:20:22;;;;;;;5.45;1.70;;;;;;;;;;5074678;28;20078;-84
2022/08/13 02:22:49;;;;;;;3.50;1.40;;;;;;;;;;5059114;28;20037;-84
2022/08/13 02:25:16;;;;;;;1.85;1.58;;;;;;;;;;5075430;28;20033;-84
2022/08/13 02:27:43;;;;;;;2.28;1.63;;;;;;;;;;5077158;28;20505;-84
2022/08/13 02:30:11;;;;;;;3.10;1.60;;;;;;;;;;5059098;28;20481;-83
2022/08/13 02:32:40;;;;;;;1.60;1.50;;;;;;;;;;5058889;28;20024;-83
2022/08/13 02:35:15;;;;;;;1.60;1.50;;;;;;;;;;5076376;28;20040;-83
2022/08/13 02:37:41;;;;;;;2.47;1.60;;;;;;;;;;5086345;28;20404;-83
2022/08/13 02:41:38;;;;;;;3.35;1.65;;;;;;;;;;5086109;28;20428;-83
2022/08/13 02:42:53;;;;;;;2.28;1.52;;;;;;;;;;5086058;28;20135;-83
2022/08/13 02:45:22;;;;;;;1.85;1.63;;;;;;;;;;5084303;28;20094;-83
2022/08/13 02:47:48;;;;;;;2.00;1.60;;;;;;;;;;5067165;28;20033;-84
2022/08/13 02:50:14;;;;;;;2.00;1.60;;;;;;;;;;5084898;28;20043;-83
2022/08/13 02:52:41;;;;;;;2.78;1.55;;;;;;;;;;5066671;28;20016;-83
2022/08/13 02:55:07;;;;;;;3.35;1.88;;;;;;;;;;5083861;28;20028;-83
2022/08/13 02:57:33;;;;;;;1.77;1.58;;;;;;;;;;5084815;28;20042;-82
2022/08/13 02:59:59;;;;;;;3.70;1.60;;;;;;;;;;5066768;28;20036;-83
2022/08/13 03:02:25;;;;;;;2.08;1.60;;;;;;;;;;5085181;28;20097;-83
2022/08/13 03:04:50;;;;;;;2.45;1.88;;;;;;;;;;5048453;28;20113;-83
2022/08/13 03:07:18;;;;;;;1.52;1.42;;;;;;;;;;5065656;28;20028;-83
2022/08/13 03:09:44;;;;;;;5.53;1.75;;;;;;;;;;5084570;28;20051;-83
2022/08/13 03:12:12;;;;;;;2.75;1.83;;;;;;;;;;5069190;28;20033;-83
2022/08/13 03:14:39;;;;;;;3.03;1.90;;;;;;;;;;5087382;28;20044;-83
2022/08/13 03:17:04;;;;;;;4.07;1.90;;;;;;;;;;5069577;28;20047;-83
2022/08/13 03:19:30;;;;;;;2.33;1.80;;;;;;;;;;5069932;28;20057;-83
2022/08/13 03:21:55;;;;;;;2.00;1.80;;;;;;;;;;5069439;28;20075;-83
2022/08/13 03:24:21;;;;;;;2.30;1.67;;;;;;;;;;5087230;28;20042;-83
2022/08/13 03:26:47;;;;;;;2.20;1.77;;;;;;;;;;5088189;28;20033;-83
2022/08/13 03:29:14;;;;;;;2.30;1.70;;;;;;;;;;5087532;28;20028;-83
2022/08/13 03:31:40;;;;;;;2.50;1.70;;;;;;;;;;5069551;28;20032;-83
2022/08/13 03:34:06;;;;;;;2.58;2.00;;;;;;;;;;5087105;28;20028;-83
2022/08/13 03:36:34;;;;;;;2.38;1.70;;;;;;;;;;5087603;28;20036;-83
2022/08/13 03:39:00;;;;;;;4.38;1.90;;;;;;;;;;5069178;28;20049;-83
2022/08/13 03:41:26;;;;;;;3.00;2.00;;;;;;;;;;5069527;28;20028;-83
2022/08/13 03:43:54;;;;;;;3.35;2.00;;;;;;;;;;5087197;28;20093;-83
2022/08/13 03:46:25;;;;;;;3.83;1.70;;;;;;;;;;5068750;28;20455;-83
2022/08/13 03:48:51;;;;;;;3.40;1.70;;;;;;;;;;5069324;28;20055;-83
2022/08/13 03:51:22;;;;;;;2.45;1.60;;;;;;;;;;5086839;28;20040;-84
2022/08/13 03:53:55;;;;;;;2.60;1.60;;;;;;;;;;5069422;28;20063;-83
2022/08/13 03:56:25;;;;;;;1.70;1.52;;;;;;;;;;5087117;28;20032;-83
2022/08/13 03:58:51;;;;;;;3.65;1.60;;;;;;;;;;5068957;28;20053;-83
2022/08/13 04:01:17;;;;;;;4.03;1.70;;;;;;;;;;5087637;28;20040;-83
2022/08/13 04:03:43;;;;;;;2.05;1.73;;;;;;;;;;5051234;28;20508;-83
2022/08/13 04:06:20;;;;;;;3.92;1.88;;;;;;;;;;5067578;28;20028;-83
2022/08/13 04:08:48;;;;;;;5.25;1.83;;;;;;;;;;5085639;28;20040;-82
2022/08/13 04:11:18;;;;;;;2.88;1.60;;;;;;;;;;5085004;28;20066;-83
2022/08/13 04:13:45;;;;;;;2.20;1.80;;;;;;;;;;5086813;28;20039;-83
2022/08/13 04:16:18;;;;;;;2.10;1.88;;;;;;;;;;5066778;28;20043;-82
2022/08/13 04:18:45;;;;;;;2.60;1.73;;;;;;;;;;5068223;28;20055;-83
2022/08/13 04:21:14;;;;;;;3.40;1.90;;;;;;;;;;5086377;28;20021;-83
2022/08/13 04:23:41;;;;;;;2.88;1.85;;;;;;;;;;5085248;28;20036;-83
2022/08/13 04:26:08;;;;;;;3.70;2.05;;;;;;;;;;5050889;28;20123;-83
2022/08/13 04:28:35;;;;;;;2.15;1.80;;;;;;;;;;5085400;28;20071;-82
2022/08/13 04:31:00;;;;;;;2.10;1.60;;;;;;;;;;5086453;28;20052;-83
2022/08/13 04:33:27;;;;;;;2.47;1.75;;;;;;;;;;5085966;28;20063;-83
2022/08/13 04:35:53;;;;;;;3.45;1.83;;;;;;;;;;5068025;28;20044;-83
2022/08/13 04:38:18;;;;;;;2.38;1.70;;;;;;;;;;5086592;28;20047;-83
2022/08/13 04:40:46;;;;;;;1.95;1.70;;;;;;;;;;5086223;28;20040;-83
2022/08/13 04:43:12;;;;;;;2.90;2.00;;;;;;;;;;5086018;28;20035;-83
2022/08/13 04:45:39;;;;;;;2.17;1.80;;;;;;;;;;5085367;28;20028;-83
2022/08/13 04:48:12;;;;;;;3.35;1.90;;;;;;;;;;5067762;28;20039;-82
2022/08/13 04:50:40;;;;;;;2.95;1.90;;;;;;;;;;5084859;28;20485;-82
2022/08/13 04:53:09;;;;;;;2.67;1.90;;;;;;;;;;5068391;28;20108;-83
2022/08/13 04:55:36;;;;;;;2.75;1.88;;;;;;;;;;5085195;28;20050;-82
2022/08/13 04:58:02;;;;;;;4.45;1.90;;;;;;;;;;5068047;28;20028;-84
2022/08/13 05:00:32;;;;;;;3.10;1.77;;;;;;;;;;5085221;28;20048;-85
2022/08/13 05:03:10;;;;;;;3.05;1.88;;;;;;;;;;5085176;28;20012;-83
2022/08/13 05:05:36;;;;;;;3.50;1.77;;;;;;;;;;5067296;28;20035;-83
2022/08/13 05:08:07;;;;;;;2.20;1.80;;;;;;;;;;5085021;28;20071;-83
2022/08/13 05:10:38;;;;;;;7.00;2.95;;;;;;;;;;5082969;28;20060;-83
2022/08/13 05:13:19;;;;;;;4.85;2.90;;;;;;;;;;5067567;28;20090;-82
2022/08/13 05:15:45;;;;;;;3.60;2.65;;;;;;;;;;5085260;28;20033;-82
2022/08/13 05:18:10;;;;;;;2.60;1.80;;;;;;;;;;5085063;28;20037;-82
2022/08/13 05:20:36;;;;;;;4.22;1.80;;;;;;;;;;5085546;28;20020;-84
2022/08/13 05:23:09;;;;;;;2.75;1.90;;;;;;;;;;5085869;28;20036;-84
2022/08/13 05:25:35;;;;;;;2.10;1.90;;;;;;;;;;5067265;28;20040;-84
2022/08/13 05:28:01;;;;;;;3.13;1.70;;;;;;;;;;5086164;28;20044;-84
2022/08/13 05:30:27;;;;;;;2.25;1.60;;;;;;;;;;5051477;28;20028;-84
2022/08/13 05:32:57;;;;;;;3.65;1.77;;;;;;;;;;5062789;28;20041;-85
2022/08/13 05:35:25;;;;;;;2.85;2.10;;;;;;;;;;5063779;28;20062;-85
2022/08/13 05:37:51;;;;;;;3.90;2.05;;;;;;;;;;5063795;28;20402;-83
2022/08/13 05:40:17;;;;;;;3.25;1.70;;;;;;;;;;5065518;28;20032;-83
2022/08/13 05:42:43;;;;;;;2.92;1.98;;;;;;;;;;5086256;28;20043;-83
2022/08/13 05:45:09;;;;;;;3.30;1.92;;;;;;;;;;5082395;28;20082;-83
2022/08/13 05:47:36;;;;;;;12.68;7.50;;;;;;;;;;5083133;28;20040;-83
2022/08/13 05:50:13;;;;;;;15.25;7.63;;;;;;;;;;5083707;28;20114;-83
2022/08/13 05:52:40;;;;;;;7.93;4.20;;;;;;;;;;5085044;28;20039;-83
2022/08/13 05:55:07;;;;;;;9.82;3.80;;;;;;;;;;5066483;28;20033;-83
2022/08/13 05:57:33;;;;;;;4.72;3.10;;;;;;;;;;5083541;28;20032;-82
2022/08/13 06:05:26;;;;;;;3.17;1.90;;;;;;;;;;5084472;28;20041;-83
2022/08/13 06:07:54;;;;;;;2.63;2.00;;;;;;;;;;5080867;28;20037;-83
2022/08/13 06:10:20;;;;;;;3.20;2.05;;;;;;;;;;5082465;28;20110;-84
2022/08/13 06:12:47;;;;;;;3.97;2.00;;;;;;;;;;5087518;28;20036;-83
2022/08/13 06:15:12;;;;;;;2.42;1.88;;;;;;;;;;5086641;28;20028;-84
2022/08/13 06:17:38;;;;;;;2.10;1.70;;;;;;;;;;5070179;28;20064;-84
2022/08/13 06:20:05;;;;;;;3.10;2.00;;;;;;;;;;5086127;28;20048;-85
2022/08/13 06:22:35;;;;;;;2.10;1.80;;;;;;;;;;5068070;28;20033;-84
2022/08/13 06:25:06;;;;;;;2.15;1.77;;;;;;;;;;5066973;28;20543;-83
2022/08/13 06:27:32;;;;;;;2.45;1.88;;;;;;;;;;5076294;28;20033;-84
2022/08/13 06:29:58;;;;;;;4.22;1.80;;;;;;;;;;5084092;28;20078;-84
2022/08/13 06:32:24;;;;;;;2.45;1.75;;;;;;;;;;5067304;28;20039;-84
2022/08/13 06:34:51;;;;;;;2.22;1.73;;;;;;;;;;5082838;28;20112;-84
2022/08/13 06:37:17;;;;;;;2.50;1.80;;;;;;;;;;5084072;28;20033;-84
2022/08/13 06:39:44;;;;;;;2.08;1.70;;;;;;;;;;5078366;28;20075;-83
2022/08/13 06:42:11;;;;;;;2.17;1.60;;;;;;;;;;5084217;28;20036;-84
2022/08/13 06:44:39;;;;;;;2.30;1.70;;;;;;;;;;5071623;28;20032;-84
2022/08/13 06:47:05;;;;;;;4.10;1.80;;;;;;;;;;5058779;28;20064;-84
2022/08/13 06:49:33;;;;;;;1.80;1.60;;;;;;;;;;5090836;28;20040;-84
2022/08/13 06:51:59;;;;;;;2.08;1.50;;;;;;;;;;5072874;28;20485;-85
2022/08/13 06:54:25;;;;;;;3.25;1.60;;;;;;;;;;5086955;28;20635;-84
2022/08/13 06:56:53;;;;;;;3.05;1.50;;;;;;;;;;5081998;28;20060;-84
2022/08/13 06:59:21;;;;;;;3.72;1.50;;;;;;;;;;5064952;28;20036;-84
2022/08/13 07:01:47;;;;;;;2.50;1.80;;;;;;;;;;5083446;28;20438;-85
2022/08/13 07:04:19;;;;;;;2.58;1.55;;;;;;;;;;5077982;28;20118;-85
2022/08/13 07:06:47;;;;;;;1.90;1.45;;;;;;;;;;5077840;28;20484;-85
2022/08/13 07:09:13;;;;;;;1.90;1.40;;;;;;;;;;5060771;28;20028;-85
2022/08/13 07:11:44;;;;;;;5.03;1.65;;;;;;;;;;5080039;28;20039;-85
2022/08/13 07:14:10;;;;;;;2.28;1.40;;;;;;;;;;5061882;28;20131;-87
2022/08/13 07:16:36;;;;;;;3.88;1.50;;;;;;;;;;5083165;28;20040;-87
2022/08/13 07:19:03;;;;;;;3.22;1.45;;;;;;;;;;5083420;28;20037;-88
2022/08/13 07:21:30;;;;;;;3.10;1.80;;;;;;;;;;5065293;28;20037;-86
2022/08/13 07:23:56;;;;;;;2.88;1.30;;;;;;;;;;5082000;28;20051;-83
2022/08/13 07:26:27;;;;;;;2.35;1.60;;;;;;;;;;5079132;28;20516;-85
2022/08/13 07:28:52;;;;;;;3.70;1.50;;;;;;;;;;5080421;28;20036;-86
2022/08/13 07:31:23;;;;;;;3.33;1.48;;;;;;;;;;5044280;28;20039;-85
2022/08/13 07:33:52;;;;;;;2.20;1.40;;;;;;;;;;5078396;28;20036;-85
2022/08/13 07:36:19;;;;;;;1.30;1.20;;;;;;;;;;5077380;28;20038;-86
2022/08/13 07:38:46;;;;;;;2.40;1.50;;;;;;;;;;5078089;28;20032;-87
2022/08/13 07:41:12;;;;;;;1.40;1.30;;;;;;;;;;5079495;28;20033;-87
2022/08/13 07:43:43;;;;;;;2.55;1.50;;;;;;;;;;5061037;28;20037;-86
2022/08/13 07:46:12;;;;;;;2.17;1.50;;;;;;;;;;5078397;28;20033;-87
2022/08/13 07:48:39;;;;;;;2.20;1.33;;;;;;;;;;5078454;28;20035;-86
2022/08/13 07:51:19;;;;;;;2.13;1.50;;;;;;;;;;5060627;28;20040;-85
2022/08/13 07:53:50;;;;;;;1.48;1.33;;;;;;;;;;5077267;28;20525;-85
2022/08/13 07:56:21;;;;;;;3.90;1.40;;;;;;;;;;5060454;28;20029;-85
2022/08/13 07:58:47;;;;;;;2.22;1.50;;;;;;;;;;5060295;28;20032;-86
2022/08/13 08:01:13;;;;;;;2.22;1.40;;;;;;;;;;5078372;28;20028;-86
2022/08/13 08:03:41;;;;;;;2.03;1.40;;;;;;;;;;5078822;28;20040;-86
2022/08/13 08:06:10;;;;;;;1.70;1.30;;;;;;;;;;5059979;28;20039;-87
2022/08/13 08:08:38;;;;;;;2.33;1.50;;;;;;;;;;5062007;28;20029;-86
2022/08/13 08:11:05;;;;;;;1.45;1.20;;;;;;;;;;5062623;28;20033;-87
2022/08/13 08:13:32;;;;;;;5.18;1.40;;;;;;;;;;5080969;28;20400;-86
2022/08/13 08:15:58;;;;;;;2.53;1.23;;;;;;;;;;5079655;28;20033;-86
2022/08/13 08:18:24;;;;;;;1.85;1.30;;;;;;;;;;5061531;28;20128;-86
2022/08/13 08:21:04;;;;;;;1.73;1.30;;;;;;;;;;5060202;28;20727;-87
2022/08/13 08:23:32;;;;;;;1.98;1.40;;;;;;;;;;5080274;28;20056;-87
2022/08/13 08:26:00;;;;;;;3.85;1.60;;;;;;;;;;5061411;28;20033;-86
2022/08/13 08:28:30;;;;;;;4.22;1.30;;;;;;;;;;5082787;28;20041;-85
2022/08/13 08:30:56;;;;;;;1.40;1.30;;;;;;;;;;5085917;28;20032;-84
2022/08/13 08:33:28;;;;;;;1.50;1.30;;;;;;;;;;5085621;28;20066;-85
2022/08/13 08:35:54;;;;;;;1.60;1.20;;;;;;;;;;5086384;28;20039;-84
2022/08/13 08:43:53;;;;;;;2.28;1.40;;;;;;;;;;5085165;28;20110;-86
2022/08/13 08:46:21;;;;;;;2.03;1.30;;;;;;;;;;5084161;28;20564;-85
2022/08/13 08:48:47;;;;;;;3.13;1.40;;;;;;;;;;5086784;28;20048;-85
2022/08/13 08:51:13;;;;;;;1.85;1.33;;;;;;;;;;5068924;28;20032;-85
2022/08/13 08:53:47;;;;;;;1.35;1.20;;;;;;;;;;5068930;28;20070;-85
2022/08/13 08:56:15;;;;;;;1.98;1.35;;;;;;;;;;5085669;28;20033;-85
2022/08/13 08:58:42;;;;;;;1.83;1.30;;;;;;;;;;5086461;28;20036;-87
2022/08/13 09:01:10;;;;;;;2.08;1.35;;;;;;;;;;5081437;28;20404;-85
2022/08/13 09:03:39;;;;;;;2.92;1.40;;;;;;;;;;5082298;28;20127;-85
2022/08/13 09:06:08;;;;;;;2.97;1.50;;;;;;;;;;5063082;28;20032;-86
2022/08/13 09:08:36;;;;;;;2.10;1.50;;;;;;;;;;5081290;28;20049;-84
2022/08/13 09:11:02;;;;;;;3.65;1.65;;;;;;;;;;5061866;28;20041;-86
2022/08/13 09:13:29;;;;;;;3.05;1.50;;;;;;;;;;5063957;28;20039;-85
2022/08/13 09:15:57;;;;;;;3.97;1.50;;;;;;;;;;5081879;28;20059;-86
2022/08/13 09:18:23;;;;;;;3.13;1.42;;;;;;;;;;5082294;28;20032;-86
2022/08/13 09:20:50;;;;;;;2.28;1.42;;;;;;;;;;5081656;28;20040;-86
2022/08/13 09:23:17;;;;;;;1.58;1.42;;;;;;;;;;5082049;28;20040;-86
2022/08/13 09:25:48;;;;;;;3.80;1.50;;;;;;;;;;5081818;28;20025;-85
2022/08/13 09:28:24;;;;;;;1.75;1.45;;;;;;;;;;5063809;28;20032;-86
2022/08/13 09:30:54;;;;;;;2.95;1.27;;;;;;;;;;5063261;28;20036;-87
2022/08/13 09:33:22;;;;;;;3.25;1.25;;;;;;;;;;5081641;28;20093;-86
2022/08/13 09:35:50;;;;;;;3.60;1.40;;;;;;;;;;5082008;28;20028;-85
2022/08/13 09:38:16;;;;;;;2.60;1.45;;;;;;;;;;5082416;28;20086;-85
2022/08/13 09:40:47;;;;;;;4.78;1.40;;;;;;;;;;5064132;28;20036;-85
2022/08/13 09:43:18;;;;;;;4.97;1.35;;;;;;;;;;5065271;28;20040;-86
2022/08/13 09:45:44;;;;;;;4.95;1.50;;;;;;;;;;5081317;28;20060;-86
2022/08/13 09:48:10;;;;;;;1.83;1.40;;;;;;;;;;5082723;28;20029;-85
2022/08/13 09:50:36;;;;;;;1.60;1.42;;;;;;;;;;5081200;28;20071;-85
2022/08/13 09:53:02;;;;;;;2.40;1.60;;;;;;;;;;5081325;28;20401;-86
2022/08/13 09:55:28;;;;;;;2.75;1.60;;;;;;;;;;5080913;28;20477;-85
2022/08/13 09:57:59;;;;;;;2.47;1.50;;;;;;;;;;5082048;28;20033;-85
2022/08/13 10:00:30;;;;;;;3.65;1.60;;;;;;;;;;5063209;28;20062;-85
2022/08/13 10:02:59;;;;;;;2.58;1.50;;;;;;;;;;5063930;28;20036;-86
2022/08/13 10:05:34;;;;;;;5.43;1.45;;;;;;;;;;5082588;28;20055;-86
2022/08/13 10:08:13;;;;;;;4.75;1.60;;;;;;;;;;5063004;28;20508;-86
2022/08/13 10:10:38;;;;;;;3.63;1.48;;;;;;;;;;5079906;28;20092;-85
2022/08/13 10:13:04;;;;;;;2.67;1.40;;;;;;;;;;5077586;28;20056;-85
2022/08/13 10:15:30;;;;;;;5.07;1.60;;;;;;;;;;5078813;28;20087;-86
2022/08/13 10:17:57;;;;;;;2.35;1.40;;;;;;;;;;5082901;28;20139;-86
2022/08/13 10:20:24;;;;;;;1.67;1.35;;;;;;;;;;5066294;28;20127;-85
2022/08/13 10:22:51;;;;;;;2.20;1.50;;;;;;;;;;5084258;28;20044;-85
2022/08/13 10:25:17;;;;;;;1.95;1.35;;;;;;;;;;5083298;28;20036;-85
2022/08/13 10:27:44;;;;;;;1.90;1.50;;;;;;;;;;5084560;28;20517;-84
2022/08/13 10:30:10;;;;;;;2.33;1.52;;;;;;;;;;5066864;28;20044;-85
2022/08/13 10:32:36;;;;;;;1.80;1.55;;;;;;;;;;5085094;28;20052;-85
2022/08/13 10:35:03;;;;;;;2.60;1.50;;;;;;;;;;5088373;28;20038;-85
2022/08/13 10:37:30;;;;;;;3.22;1.60;;;;;;;;;;5084422;28;20052;-86
2022/08/13 10:39:57;;;;;;;3.00;1.65;;;;;;;;;;5083909;28;20036;-84
2022/08/13 10:42:23;;;;;;;2.08;1.50;;;;;;;;;;5066267;28;20032;-84
2022/08/13 10:44:52;;;;;;;2.42;1.58;;;;;;;;;;5081650;28;20039;-85
2022/08/13 10:47:24;;;;;;;2.05;1.60;;;;;;;;;;5062698;28;20032;-85
2022/08/13 10:49:53;;;;;;;5.80;1.60;;;;;;;;;;5061771;28;20036;-85
2022/08/13 10:52:20;;;;;;;4.10;1.58;;;;;;;;;;5077343;28;20068;-87
2022/08/13 10:54:47;;;;;;;2.15;1.60;;;;;;;;;;5078269;28;20213;-86
2022/08/13 10:57:14;;;;;;;4.88;1.67;;;;;;;;;;5079044;28;20081;-84
2022/08/13 10:59:45;;;;;;;3.30;1.63;;;;;;;;;;5080074;28;20071;-85
2022/08/13 11:02:11;;;;;;;3.38;1.70;;;;;;;;;;5078700;28;20081;-87
2022/08/13 11:04:38;;;;;;;3.55;1.67;;;;;;;;;;5078632;28;20048;-86
2022/08/13 11:07:06;;;;;;;2.25;1.50;;;;;;;;;;5061753;28;20051;-84
2022/08/13 11:09:31;;;;;;;3.22;1.58;;;;;;;;;;5082761;28;20028;-84
2022/08/13 11:12:00;;;;;;;4.45;1.70;;;;;;;;;;5080103;28;20428;-85
2022/08/13 11:14:28;;;;;;;2.22;1.60;;;;;;;;;;5080476;28;20059;-87
2022/08/13 11:19:25;;;;;;;2.38;1.75;;;;;;;;;;5078467;28;20039;-86
2022/08/13 11:21:51;;;;;;;3.60;1.80;;;;;;;;;;5077578;28;20032;-84
2022/08/13 11:24:18;;;;;;;2.28;1.60;;;;;;;;;;5076817;28;20115;-85
2022/08/13 11:26:45;;;;;;;7.68;2.10;;;;;;;;;;5077525;28;20485;-85
2022/08/13 11:29:11;;;;;;;2.92;2.10;;;;;;;;;;5077583;28;20120;-85
2022/08/13 11:31:37;;;;;;;2.67;1.80;;;;;;;;;;5077543;28;20028;-84
2022/08/13 11:34:03;;;;;;;3.05;1.80;;;;;;;;;;5076984;28;20055;-84
2022/08/13 11:36:29;;;;;;;2.85;1.92;;;;;;;;;;5077236;28;20063;-85
2022/08/13 11:38:54;;;;;;;3.00;1.92;;;;;;;;;;5076894;28;20099;-85
2022/08/13 11:41:20;;;;;;;3.95;2.42;;;;;;;;;;5077610;28;20465;-85
2022/08/13 11:43:48;;;;;;;2.65;1.92;;;;;;;;;;5077441;28;20036;-84
2022/08/13 11:46:14;;;;;;;5.75;2.17;;;;;;;;;;5076711;28;20036;-85
2022/08/13 11:48:41;;;;;;;5.22;2.13;;;;;;;;;;5076970;28;20047;-85
2022/08/13 11:51:06;;;;;;;2.45;2.10;;;;;;;;;;5077283;28;20058;-85
2022/08/13 11:53:32;;;;;;;3.25;2.08;;;;;;;;;;5077670;28;20025;-86
2022/08/13 11:55:57;;;;;;;2.78;1.95;;;;;;;;;;5075982;28;20032;-85
2022/08/13 11:58:23;;;;;;;3.58;2.13;;;;;;;;;;5059542;28;20040;-85
2022/08/13 12:00:48;;;;;;;4.00;2.10;;;;;;;;;;5079023;28;20039;-87
2022/08/13 12:03:14;;;;;;;5.30;1.83;;;;;;;;;;5077668;28;20040;-86
2022/08/13 12:05:39;;;;;;;2.03;1.83;;;;;;;;;;5076524;28;20382;-85
2022/08/13 12:08:17;;;;;;;3.13;1.88;;;;;;;;;;5077090;28;20028;-86
2022/08/13 12:10:42;;;;;;;3.45;1.95;;;;;;;;;;5076093;28;20028;-86
2022/08/13 12:13:08;;;;;;;2.90;1.98;;;;;;;;;;5077157;28;20029;-86
2022/08/13 12:15:34;;;;;;;3.25;2.00;;;;;;;;;;5075729;28;20055;-86
2022/08/13 12:18:00;;;;;;;2.70;1.98;;;;;;;;;;5076525;28;20040;-86
2022/08/13 12:20:25;;;;;;;2.17;1.90;;;;;;;;;;5076750;28;20480;-86
2022/08/13 12:22:53;;;;;;;2.75;2.00;;;;;;;;;;5076564;28;20056;-85
2022/08/13 12:25:21;;;;;;;5.10;1.90;;;;;;;;;;5058386;28;20405;-85
2022/08/13 12:27:47;;;;;;;3.17;2.15;;;;;;;;;;5076754;28;20044;-85
2022/08/13 12:30:13;;;;;;;4.13;1.83;;;;;;;;;;5065160;28;20082;-86
2022/08/13 12:32:39;;;;;;;4.53;1.80;;;;;;;;;;5057334;28;20048;-83
2022/08/13 12:35:05;;;;;;;4.35;1.90;;;;;;;;;;5057149;28;20206;-87
2022/08/13 12:37:30;;;;;;;5.28;1.98;;;;;;;;;;5060209;28;20036;-87
2022/08/13 12:39:58;;;;;;;4.05;1.90;;;;;;;;;;5058951;28;20037;-87
2022/08/13 12:42:25;;;;;;;3.92;2.00;;;;;;;;;;5038485;28;20519;-86
2022/08/13 12:44:51;;;;;;;3.83;1.90;;;;;;;;;;5038732;28;20045;-85
2022/08/13 12:47:17;;;;;;;2.08;1.77;;;;;;;;;;5039619;28;20072;-86
2022/08/13 12:49:42;;;;;;;2.58;2.00;;;;;;;;;;5056270;28;20077;-85
2022/08/13 12:52:08;;;;;;;4.07;2.00;;;;;;;;;;5054890;28;20489;-85
2022/08/13 12:54:34;;;;;;;2.00;1.75;;;;;;;;;;5037915;28;20064;-84
2022/08/13 12:56:59;;;;;;;3.42;2.10;;;;;;;;;;5055431;28;20062;-85
2022/08/13 12:59:25;;;;;;;4.03;2.00;;;;;;;;;;5037441;28;20402;-85
2022/08/13 13:01:53;;;;;;;5.60;1.90;;;;;;;;;;5055466;28;20025;-85
2022/08/13 13:04:22;;;;;;;2.17;1.67;;;;;;;;;;5055273;28;20481;-86
2022/08/13 13:06:50;;;;;;;3.25;1.80;;;;;;;;;;5055610;28;20040;-85
2022/08/13 13:09:16;;;;;;;2.90;1.88;;;;;;;;;;5036877;28;20036;-84
2022/08/13 13:11:42;;;;;;;2.63;2.00;;;;;;;;;;5055742;28;20044;-81
2022/08/13 13:14:08;;;;;;;5.05;2.13;;;;;;;;;;5055002;28;20064;-85
2022/08/13 13:16:35;;;;;;;3.40;1.90;;;;;;;;;;5055779;28;20041;-85
2022/08/13 13:19:01;;;;;;;2.80;1.88;;;;;;;;;;5055555;28;20486;-85
2022/08/13 13:21:31;;;;;;;2.25;1.70;;;;;;;;;;5055596;28;20089;-86
2022/08/13 13:23:56;;;;;;;6.38;1.80;;;;;;;;;;5037175;28;20041;-84
2022/08/13 13:26:22;;;;;;;3.38;1.80;;;;;;;;;;5060233;28;20032;-86
2022/08/13 13:28:54;;;;;;;5.05;1.85;;;;;;;;;;5062522;28;20041;-86
2022/08/13 13:31:20;;;;;;;4.80;2.30;;;;;;;;;;5064796;28;20039;-86
2022/08/13 13:33:46;;;;;;;5.03;1.80;;;;;;;;;;5066157;28;20044;-85
2022/08/13 13:36:11;;;;;;;3.72;1.85;;;;;;;;;;5041452;28;20036;-85
2022/08/13 13:38:36;;;;;;;2.47;1.55;;;;;;;;;;5046415;28;20028;-85
2022/08/13 13:41:02;;;;;;;3.22;1.73;;;;;;;;;;5046147;28;20029;-85
2022/08/13 13:43:28;;;;;;;6.18;1.90;;;;;;;;;;5063450;28;20049;-86
2022/08/13 13:45:58;;;;;;;2.95;1.85;;;;;;;;;;5046670;28;20150;-86
2022/08/13 13:48:38;;;;;;;2.40;1.90;;;;;;;;;;5064959;28;20033;-87
2022/08/13 13:51:07;;;;;;;2.38;2.00;;;;;;;;;;5064397;28;20044;-85
2022/08/13 13:53:34;;;;;;;2.30;1.77;;;;;;;;;;5064542;28;20040;-85
2022/08/13 13:56:02;;;;;;;2.75;1.80;;;;;;;;;;5072992;28;20544;-88
2022/08/13 13:58:28;;;;;;;3.17;2.20;;;;;;;;;;5050907;28;20028;-86
2022/08/13 14:00:54;;;;;;;3.35;2.20;;;;;;;;;;5065493;28;20029;-86
2022/08/13 14:03:24;;;;;;;4.35;2.00;;;;;;;;;;5067792;28;20025;-86
2022/08/13 14:05:49;;;;;;;3.28;2.00;;;;;;;;;;5067477;28;20028;-87
2022/08/13 14:08:15;;;;;;;4.20;1.90;;;;;;;;;;5076370;28;20095;-87
2022/08/13 14:10:46;;;;;;;3.67;2.00;;;;;;;;;;5060476;28;20036;-85
2022/08/13 14:13:13;;;;;;;3.35;2.15;;;;;;;;;;5078041;28;20047;-86
2022/08/13 14:15:39;;;;;;;3.03;1.90;;;;;;;;;;5078405;28;20051;-86
2022/08/13 14:18:08;;;;;;;4.15;1.90;;;;;;;;;;5078973;28;20036;-86
2022/08/13 14:20:36;;;;;;;3.55;1.80;;;;;;;;;;5077475;28;20090;-86
2022/08/13 14:23:02;;;;;;;2.25;1.85;;;;;;;;;;5078901;28;20029;-86
2022/08/13 14:25:30;;;;;;;4.43;2.00;;;;;;;;;;5077869;28;20038;-87
2022/08/13 14:27:56;;;;;;;3.63;1.70;;;;;;;;;;5060129;28;20040;-87
2022/08/13 14:30:22;;;;;;;2.65;1.60;;;;;;;;;;5077954;28;20550;-87
2022/08/13 14:32:48;;;;;;;2.28;1.77;;;;;;;;;;5059272;28;20032;-86
2022/08/13 14:35:15;;;;;;;3.22;1.70;;;;;;;;;;5060928;28;20047;-88
2022/08/13 14:37:48;;;;;;;2.53;1.65;;;;;;;;;;5063131;28;20036;-88
2022/08/13 14:40:16;;;;;;;3.38;1.70;;;;;;;;;;5083312;28;20047;-89
2022/08/13 14:42:47;;;;;;;4.25;2.95;;;;;;;;;;5062051;28;20101;-88
2022/08/13 14:48:05;;;;;;;2.50;2.00;;;;;;;;;;5080140;28;20050;-88
2022/08/13 14:50:31;;;;;;;5.90;2.10;;;;;;;;;;5080178;28;20069;-88
2022/08/13 14:52:58;;;;;;;2.55;1.52;;;;;;;;;;5079359;28;20032;-88
2022/08/13 14:55:25;;;;;;;4.57;3.85;;;;;;;;;;5060643;28;20385;-90
2022/08/13 14:57:52;;;;;;;6.50;4.40;;;;;;;;;;5061339;28;20036;-88
2022/08/13 15:00:18;;;;;;;4.68;2.60;;;;;;;;;;5079544;28;20043;-88
2022/08/13 15:02:43;;;;;;;2.70;1.92;;;;;;;;;;5080141;28;20088;-87
2022/08/13 15:05:11;;;;;;;3.85;1.90;;;;;;;;;;5065617;28;20047;-88
2022/08/13 15:07:42;;;;;;;3.30;2.10;;;;;;;;;;5084061;28;20075;-89
2022/08/13 15:10:13;;;;;;;5.05;3.58;;;;;;;;;;5083410;28;20032;-88
2022/08/13 15:12:40;;;;;;;9.20;6.25;;;;;;;;;;5082324;28;20044;-87